sensor_id;sensor_type;location;lat;lon;timestamp;P1;durP1;ratioP1;P2;durP2;ratioP2
1563;SDS011;775;51.958;7.976;2023-02-23T00:00:30;44.93;;;27.77;;
1563;SDS011;775;51.958;7.976;2023-02-23T00:02:58;44.93;;;26.80;;
1563;SDS011;775;51.958;7.976;2023-02-23T00:05:26;46.23;;;28.13;;
1563;SDS011;775;51.958;7.976;2023-02-23T00:07:53;43.93;;;25.80;;
1563;SDS011;775;51.958;7.976;2023-02-23T00:10:21;42.10;;;26.47;;
1563;SDS011;775;51.958;7.976;2023-02-23T00:12:55;43.43;;;25.90;;
1563;SDS011;775;51.958;7.976;2023-02-23T00:15:23;44.60;;;25.00;;
1563;SDS011;775;51.958;7.976;2023-02-23T00:17:52;45.10;;;25.73;;
1563;SDS011;775;51.958;7.976;2023-02-23T00:20:19;41.57;;;25.27;;
1563;SDS011;775;51.958;7.976;2023-02-23T00:22:49;41.63;;;25.23;;
1563;SDS011;775;51.958;7.976;2023-02-23T00:25:18;42.97;;;26.07;;
1563;SDS011;775;51.958;7.976;2023-02-23T00:27:45;44.87;;;27.07;;
1563;SDS011;775;51.958;7.976;2023-02-23T00:30:14;45.30;;;25.77;;
1563;SDS011;775;51.958;7.976;2023-02-23T00:32:42;42.80;;;27.13;;
1563;SDS011;775;51.958;7.976;2023-02-23T00:35:09;41.77;;;25.70;;
1563;SDS011;775;51.958;7.976;2023-02-23T00:37:41;42.43;;;26.37;;
1563;SDS011;775;51.958;7.976;2023-02-23T00:40:09;44.13;;;26.77;;
1563;SDS011;775;51.958;7.976;2023-02-23T00:42:38;43.13;;;25.17;;
1563;SDS011;775;51.958;7.976;2023-02-23T00:45:06;39.73;;;25.03;;
1563;SDS011;775;51.958;7.976;2023-02-23T00:47:37;47.17;;;25.13;;
1563;SDS011;775;51.958;7.976;2023-02-23T00:50:05;45.40;;;26.97;;
1563;SDS011;775;51.958;7.976;2023-02-23T00:52:35;44.53;;;28.37;;
1563;SDS011;775;51.958;7.976;2023-02-23T00:55:03;46.50;;;26.47;;
1563;SDS011;775;51.958;7.976;2023-02-23T00:57:30;46.00;;;26.83;;
1563;SDS011;775;51.958;7.976;2023-02-23T00:59:57;47.07;;;25.80;;
1563;SDS011;775;51.958;7.976;2023-02-23T01:02:24;41.00;;;24.37;;
1563;SDS011;775;51.958;7.976;2023-02-23T01:04:55;42.97;;;24.73;;
1563;SDS011;775;51.958;7.976;2023-02-23T01:07:23;43.30;;;25.63;;
1563;SDS011;775;51.958;7.976;2023-02-23T01:09:50;41.33;;;26.17;;
1563;SDS011;775;51.958;7.976;2023-02-23T01:12:18;41.37;;;24.40;;
1563;SDS011;775;51.958;7.976;2023-02-23T01:14:45;41.67;;;25.07;;
1563;SDS011;775;51.958;7.976;2023-02-23T01:17:12;48.93;;;27.33;;
1563;SDS011;775;51.958;7.976;2023-02-23T01:19:39;45.60;;;27.93;;
1563;SDS011;775;51.958;7.976;2023-02-23T01:22:08;44.33;;;27.77;;
1563;SDS011;775;51.958;7.976;2023-02-23T01:24:35;45.97;;;28.83;;
1563;SDS011;775;51.958;7.976;2023-02-23T01:27:02;45.70;;;28.30;;
1563;SDS011;775;51.958;7.976;2023-02-23T01:29:29;47.47;;;28.70;;
1563;SDS011;775;51.958;7.976;2023-02-23T01:31:56;47.40;;;27.40;;
1563;SDS011;775;51.958;7.976;2023-02-23T01:34:24;43.13;;;27.03;;
1563;SDS011;775;51.958;7.976;2023-02-23T01:36:52;48.27;;;29.33;;
1563;SDS011;775;51.958;7.976;2023-02-23T01:39:20;48.63;;;28.30;;
1563;SDS011;775;51.958;7.976;2023-02-23T01:41:47;43.57;;;28.27;;
1563;SDS011;775;51.958;7.976;2023-02-23T01:47:04;46.23;;;26.67;;
1563;SDS011;775;51.958;7.976;2023-02-23T01:49:32;40.90;;;25.57;;
1563;SDS011;775;51.958;7.976;2023-02-23T01:52:01;47.23;;;28.10;;
1563;SDS011;775;51.958;7.976;2023-02-23T01:54:31;43.77;;;25.53;;
1563;SDS011;775;51.958;7.976;2023-02-23T01:57:00;42.23;;;25.00;;
1563;SDS011;775;51.958;7.976;2023-02-23T01:59:30;44.00;;;25.90;;
1563;SDS011;775;51.958;7.976;2023-02-23T02:01:59;44.97;;;26.07;;
1563;SDS011;775;51.958;7.976;2023-02-23T02:04:29;42.57;;;27.27;;
1563;SDS011;775;51.958;7.976;2023-02-23T02:07:02;45.23;;;28.30;;
1563;SDS011;775;51.958;7.976;2023-02-23T02:09:33;47.03;;;27.80;;
1563;SDS011;775;51.958;7.976;2023-02-23T02:12:20;44.50;;;27.20;;
1563;SDS011;775;51.958;7.976;2023-02-23T02:14:48;46.10;;;28.80;;
1563;SDS011;775;51.958;7.976;2023-02-23T02:17:18;50.20;;;28.30;;
1563;SDS011;775;51.958;7.976;2023-02-23T02:22:51;44.37;;;29.60;;
1563;SDS011;775;51.958;7.976;2023-02-23T02:25:30;50.43;;;30.77;;
1563;SDS011;775;51.958;7.976;2023-02-23T02:31:01;47.80;;;30.37;;
1563;SDS011;775;51.958;7.976;2023-02-23T02:39:16;46.57;;;28.17;;
1563;SDS011;775;51.958;7.976;2023-02-23T02:41:49;46.70;;;29.57;;
1563;SDS011;775;51.958;7.976;2023-02-23T02:44:21;48.40;;;29.50;;
1563;SDS011;775;51.958;7.976;2023-02-23T02:46:52;49.13;;;31.07;;
1563;SDS011;775;51.958;7.976;2023-02-23T02:49:24;46.27;;;29.27;;
1563;SDS011;775;51.958;7.976;2023-02-23T02:51:54;48.00;;;29.30;;
1563;SDS011;775;51.958;7.976;2023-02-23T02:54:27;48.20;;;31.23;;
1563;SDS011;775;51.958;7.976;2023-02-23T02:56:56;50.20;;;31.23;;
1563;SDS011;775;51.958;7.976;2023-02-23T02:59:24;48.27;;;29.77;;
1563;SDS011;775;51.958;7.976;2023-02-23T03:02:12;47.90;;;30.27;;
1563;SDS011;775;51.958;7.976;2023-02-23T03:04:58;48.17;;;28.10;;
1563;SDS011;775;51.958;7.976;2023-02-23T03:07:44;44.73;;;28.30;;
1563;SDS011;775;51.958;7.976;2023-02-23T03:10:34;48.87;;;28.90;;
1563;SDS011;775;51.958;7.976;2023-02-23T03:13:22;49.57;;;28.83;;
1563;SDS011;775;51.958;7.976;2023-02-23T03:16:14;47.40;;;26.93;;
1563;SDS011;775;51.958;7.976;2023-02-23T03:19:05;45.80;;;27.77;;
1563;SDS011;775;51.958;7.976;2023-02-23T03:21:52;46.50;;;29.03;;
1563;SDS011;775;51.958;7.976;2023-02-23T03:24:40;47.90;;;29.07;;
1563;SDS011;775;51.958;7.976;2023-02-23T03:27:27;46.90;;;27.90;;
1563;SDS011;775;51.958;7.976;2023-02-23T03:30:16;44.60;;;26.37;;
1563;SDS011;775;51.958;7.976;2023-02-23T03:33:04;47.97;;;30.20;;
1563;SDS011;775;51.958;7.976;2023-02-23T03:35:52;44.87;;;28.23;;
1563;SDS011;775;51.958;7.976;2023-02-23T03:38:41;44.90;;;27.80;;
1563;SDS011;775;51.958;7.976;2023-02-23T03:41:30;50.10;;;28.47;;
1563;SDS011;775;51.958;7.976;2023-02-23T03:44:18;43.37;;;26.90;;
1563;SDS011;775;51.958;7.976;2023-02-23T03:47:04;46.33;;;27.43;;
1563;SDS011;775;51.958;7.976;2023-02-23T03:49:50;44.83;;;27.93;;
1563;SDS011;775;51.958;7.976;2023-02-23T03:52:38;44.40;;;27.10;;
1563;SDS011;775;51.958;7.976;2023-02-23T03:55:26;48.70;;;28.07;;
1563;SDS011;775;51.958;7.976;2023-02-23T03:58:15;50.77;;;31.03;;
1563;SDS011;775;51.958;7.976;2023-02-23T04:01:03;44.03;;;30.60;;
1563;SDS011;775;51.958;7.976;2023-02-23T04:03:49;48.90;;;31.07;;
1563;SDS011;775;51.958;7.976;2023-02-23T04:06:35;44.63;;;29.07;;
1563;SDS011;775;51.958;7.976;2023-02-23T04:09:21;45.97;;;30.60;;
1563;SDS011;775;51.958;7.976;2023-02-23T04:12:07;45.80;;;30.17;;
1563;SDS011;775;51.958;7.976;2023-02-23T04:14:54;44.67;;;27.93;;
1563;SDS011;775;51.958;7.976;2023-02-23T04:17:23;43.27;;;27.30;;
1563;SDS011;775;51.958;7.976;2023-02-23T04:19:56;43.27;;;28.57;;
1563;SDS011;775;51.958;7.976;2023-02-23T04:22:23;42.97;;;26.80;;
1563;SDS011;775;51.958;7.976;2023-02-23T04:24:50;43.67;;;26.47;;
1563;SDS011;775;51.958;7.976;2023-02-23T04:27:18;47.50;;;28.77;;
1563;SDS011;775;51.958;7.976;2023-02-23T04:29:45;52.10;;;29.43;;
1563;SDS011;775;51.958;7.976;2023-02-23T04:32:13;48.50;;;29.17;;
1563;SDS011;775;51.958;7.976;2023-02-23T04:34:41;48.90;;;28.63;;
1563;SDS011;775;51.958;7.976;2023-02-23T04:37:08;44.70;;;26.87;;
1563;SDS011;775;51.958;7.976;2023-02-23T04:39:36;47.83;;;28.83;;
1563;SDS011;775;51.958;7.976;2023-02-23T04:42:03;46.27;;;29.20;;
1563;SDS011;775;51.958;7.976;2023-02-23T04:44:30;45.67;;;28.73;;
1563;SDS011;775;51.958;7.976;2023-02-23T04:46:57;43.87;;;28.33;;
1563;SDS011;775;51.958;7.976;2023-02-23T04:49:24;46.70;;;28.87;;
1563;SDS011;775;51.958;7.976;2023-02-23T04:51:52;44.80;;;28.47;;
1563;SDS011;775;51.958;7.976;2023-02-23T04:54:19;44.80;;;28.63;;
1563;SDS011;775;51.958;7.976;2023-02-23T04:56:47;51.73;;;27.43;;
1563;SDS011;775;51.958;7.976;2023-02-23T04:59:14;46.60;;;27.97;;
1563;SDS011;775;51.958;7.976;2023-02-23T05:01:41;48.07;;;27.23;;
1563;SDS011;775;51.958;7.976;2023-02-23T05:04:08;41.10;;;27.17;;
1563;SDS011;775;51.958;7.976;2023-02-23T05:06:35;40.53;;;26.13;;
1563;SDS011;775;51.958;7.976;2023-02-23T05:09:04;43.03;;;26.27;;
1563;SDS011;775;51.958;7.976;2023-02-23T05:11:31;44.57;;;28.10;;
1563;SDS011;775;51.958;7.976;2023-02-23T05:13:58;46.40;;;29.00;;
1563;SDS011;775;51.958;7.976;2023-02-23T05:16:25;44.33;;;27.37;;
1563;SDS011;775;51.958;7.976;2023-02-23T05:18:53;44.30;;;27.30;;
1563;SDS011;775;51.958;7.976;2023-02-23T05:21:20;45.53;;;30.00;;
1563;SDS011;775;51.958;7.976;2023-02-23T05:23:47;43.40;;;26.97;;
1563;SDS011;775;51.958;7.976;2023-02-23T05:26:16;42.90;;;26.27;;
1563;SDS011;775;51.958;7.976;2023-02-23T05:28:43;55.83;;;30.80;;
1563;SDS011;775;51.958;7.976;2023-02-23T05:31:10;43.70;;;26.63;;
1563;SDS011;775;51.958;7.976;2023-02-23T05:33:37;44.27;;;28.67;;
1563;SDS011;775;51.958;7.976;2023-02-23T05:36:07;47.27;;;31.40;;
1563;SDS011;775;51.958;7.976;2023-02-23T05:38:34;50.13;;;31.83;;
1563;SDS011;775;51.958;7.976;2023-02-23T05:41:03;41.07;;;25.83;;
1563;SDS011;775;51.958;7.976;2023-02-23T05:43:32;43.47;;;26.53;;
1563;SDS011;775;51.958;7.976;2023-02-23T05:45:59;49.50;;;30.37;;
1563;SDS011;775;51.958;7.976;2023-02-23T05:48:26;52.53;;;28.80;;
1563;SDS011;775;51.958;7.976;2023-02-23T05:50:53;44.03;;;29.60;;
1563;SDS011;775;51.958;7.976;2023-02-23T05:53:20;51.40;;;29.90;;
1563;SDS011;775;51.958;7.976;2023-02-23T05:55:47;45.67;;;30.70;;
1563;SDS011;775;51.958;7.976;2023-02-23T05:58:16;48.83;;;30.43;;
1563;SDS011;775;51.958;7.976;2023-02-23T06:00:44;54.40;;;30.57;;
1563;SDS011;775;51.958;7.976;2023-02-23T06:03:11;47.43;;;29.23;;
1563;SDS011;775;51.958;7.976;2023-02-23T06:05:39;46.97;;;28.70;;
1563;SDS011;775;51.958;7.976;2023-02-23T06:08:07;59.83;;;35.20;;
1563;SDS011;775;51.958;7.976;2023-02-23T06:10:34;48.70;;;29.93;;
1563;SDS011;775;51.958;7.976;2023-02-23T06:13:01;53.93;;;31.43;;
1563;SDS011;775;51.958;7.976;2023-02-23T06:15:28;55.93;;;31.37;;
1563;SDS011;775;51.958;7.976;2023-02-23T06:17:57;50.53;;;30.50;;
1563;SDS011;775;51.958;7.976;2023-02-23T06:20:24;55.67;;;33.40;;
1563;SDS011;775;51.958;7.976;2023-02-23T06:22:51;55.20;;;33.80;;
1563;SDS011;775;51.958;7.976;2023-02-23T06:25:18;51.30;;;31.00;;
1563;SDS011;775;51.958;7.976;2023-02-23T06:27:45;57.57;;;33.43;;
1563;SDS011;775;51.958;7.976;2023-02-23T06:30:13;52.57;;;33.07;;
1563;SDS011;775;51.958;7.976;2023-02-23T06:32:40;59.30;;;33.53;;
1563;SDS011;775;51.958;7.976;2023-02-23T06:35:08;66.97;;;35.70;;
1563;SDS011;775;51.958;7.976;2023-02-23T06:37:35;72.07;;;38.20;;
1563;SDS011;775;51.958;7.976;2023-02-23T06:40:03;80.00;;;40.00;;
1563;SDS011;775;51.958;7.976;2023-02-23T06:42:30;72.67;;;37.13;;
1563;SDS011;775;51.958;7.976;2023-02-23T06:44:59;78.27;;;41.87;;
1563;SDS011;775;51.958;7.976;2023-02-23T06:47:26;75.03;;;38.97;;
1563;SDS011;775;51.958;7.976;2023-02-23T06:49:53;89.13;;;40.57;;
1563;SDS011;775;51.958;7.976;2023-02-23T06:52:22;80.87;;;40.77;;
1563;SDS011;775;51.958;7.976;2023-02-23T06:54:49;80.80;;;42.57;;
1563;SDS011;775;51.958;7.976;2023-02-23T06:57:16;93.20;;;42.67;;
1563;SDS011;775;51.958;7.976;2023-02-23T06:59:45;82.20;;;38.00;;
1563;SDS011;775;51.958;7.976;2023-02-23T07:02:12;73.63;;;40.90;;
1563;SDS011;775;51.958;7.976;2023-02-23T07:04:39;71.20;;;38.13;;
1563;SDS011;775;51.958;7.976;2023-02-23T07:07:07;70.70;;;40.50;;
1563;SDS011;775;51.958;7.976;2023-02-23T07:09:35;80.63;;;42.87;;
1563;SDS011;775;51.958;7.976;2023-02-23T07:12:02;69.90;;;40.17;;
1563;SDS011;775;51.958;7.976;2023-02-23T07:14:29;73.37;;;38.77;;
1563;SDS011;775;51.958;7.976;2023-02-23T07:16:57;67.20;;;39.47;;
1563;SDS011;775;51.958;7.976;2023-02-23T07:19:24;80.97;;;41.43;;
1563;SDS011;775;51.958;7.976;2023-02-23T07:21:51;75.73;;;39.30;;
1563;SDS011;775;51.958;7.976;2023-02-23T07:24:18;74.93;;;40.67;;
1563;SDS011;775;51.958;7.976;2023-02-23T07:26:47;91.03;;;41.87;;
1563;SDS011;775;51.958;7.976;2023-02-23T07:29:16;66.17;;;37.50;;
1563;SDS011;775;51.958;7.976;2023-02-23T07:31:43;71.43;;;38.17;;
1563;SDS011;775;51.958;7.976;2023-02-23T07:34:10;82.27;;;39.93;;
1563;SDS011;775;51.958;7.976;2023-02-23T07:36:37;73.30;;;39.13;;
1563;SDS011;775;51.958;7.976;2023-02-23T07:39:04;76.33;;;40.90;;
1563;SDS011;775;51.958;7.976;2023-02-23T07:41:31;77.97;;;40.90;;
1563;SDS011;775;51.958;7.976;2023-02-23T07:44:00;77.17;;;39.17;;
1563;SDS011;775;51.958;7.976;2023-02-23T07:46:27;74.73;;;38.60;;
1563;SDS011;775;51.958;7.976;2023-02-23T07:48:54;78.27;;;40.33;;
1563;SDS011;775;51.958;7.976;2023-02-23T07:51:21;76.33;;;40.70;;
1563;SDS011;775;51.958;7.976;2023-02-23T07:53:48;78.73;;;40.03;;
1563;SDS011;775;51.958;7.976;2023-02-23T07:56:15;85.13;;;42.17;;
1563;SDS011;775;51.958;7.976;2023-02-23T07:58:43;77.47;;;41.03;;
1563;SDS011;775;51.958;7.976;2023-02-23T08:01:11;72.37;;;40.63;;
1563;SDS011;775;51.958;7.976;2023-02-23T08:03:39;80.30;;;41.60;;
1563;SDS011;775;51.958;7.976;2023-02-23T08:06:13;75.33;;;37.40;;
1563;SDS011;775;51.958;7.976;2023-02-23T08:08:40;82.10;;;43.03;;
1563;SDS011;775;51.958;7.976;2023-02-23T08:11:07;76.60;;;38.73;;
1563;SDS011;775;51.958;7.976;2023-02-23T08:13:34;79.20;;;39.33;;
1563;SDS011;775;51.958;7.976;2023-02-23T08:16:02;86.63;;;42.30;;
1563;SDS011;775;51.958;7.976;2023-02-23T08:18:30;78.30;;;38.00;;
1563;SDS011;775;51.958;7.976;2023-02-23T08:20:58;73.67;;;40.13;;
1563;SDS011;775;51.958;7.976;2023-02-23T08:23:25;85.70;;;40.60;;
1563;SDS011;775;51.958;7.976;2023-02-23T08:25:52;73.87;;;39.30;;
1563;SDS011;775;51.958;7.976;2023-02-23T08:28:19;78.23;;;40.00;;
1563;SDS011;775;51.958;7.976;2023-02-23T08:30:47;74.00;;;42.37;;
1563;SDS011;775;51.958;7.976;2023-02-23T08:33:14;82.33;;;42.70;;
1563;SDS011;775;51.958;7.976;2023-02-23T08:35:42;75.43;;;40.23;;
1563;SDS011;775;51.958;7.976;2023-02-23T08:38:10;79.90;;;40.07;;
1563;SDS011;775;51.958;7.976;2023-02-23T08:40:37;76.37;;;40.13;;
1563;SDS011;775;51.958;7.976;2023-02-23T08:43:05;86.87;;;42.27;;
1563;SDS011;775;51.958;7.976;2023-02-23T08:45:32;74.43;;;39.70;;
1563;SDS011;775;51.958;7.976;2023-02-23T08:47:59;78.30;;;38.23;;
1563;SDS011;775;51.958;7.976;2023-02-23T08:50:26;76.00;;;40.07;;
1563;SDS011;775;51.958;7.976;2023-02-23T08:52:55;74.20;;;40.13;;
1563;SDS011;775;51.958;7.976;2023-02-23T08:55:22;79.00;;;39.27;;
1563;SDS011;775;51.958;7.976;2023-02-23T08:57:49;77.17;;;40.00;;
1563;SDS011;775;51.958;7.976;2023-02-23T09:00:16;75.47;;;39.73;;
1563;SDS011;775;51.958;7.976;2023-02-23T09:02:44;73.00;;;41.50;;
1563;SDS011;775;51.958;7.976;2023-02-23T09:05:12;67.03;;;38.70;;
1563;SDS011;775;51.958;7.976;2023-02-23T09:07:39;77.03;;;38.67;;
1563;SDS011;775;51.958;7.976;2023-02-23T09:10:11;73.20;;;37.00;;
1563;SDS011;775;51.958;7.976;2023-02-23T09:12:38;80.13;;;38.03;;
1563;SDS011;775;51.958;7.976;2023-02-23T09:15:06;75.83;;;40.67;;
1563;SDS011;775;51.958;7.976;2023-02-23T09:17:36;79.77;;;39.80;;
1563;SDS011;775;51.958;7.976;2023-02-23T09:20:04;72.50;;;37.47;;
1563;SDS011;775;51.958;7.976;2023-02-23T09:22:31;76.20;;;40.60;;
1563;SDS011;775;51.958;7.976;2023-02-23T09:24:58;78.67;;;39.80;;
1563;SDS011;775;51.958;7.976;2023-02-23T09:27:27;74.80;;;38.83;;
1563;SDS011;775;51.958;7.976;2023-02-23T09:29:54;79.23;;;39.13;;
1563;SDS011;775;51.958;7.976;2023-02-23T09:32:21;71.90;;;38.17;;
1563;SDS011;775;51.958;7.976;2023-02-23T09:34:48;77.00;;;37.43;;
1563;SDS011;775;51.958;7.976;2023-02-23T09:37:16;71.90;;;35.33;;
1563;SDS011;775;51.958;7.976;2023-02-23T09:39:43;69.43;;;38.60;;
1563;SDS011;775;51.958;7.976;2023-02-23T09:42:15;73.63;;;39.17;;
1563;SDS011;775;51.958;7.976;2023-02-23T09:44:48;70.70;;;36.03;;
1563;SDS011;775;51.958;7.976;2023-02-23T09:47:29;64.27;;;36.67;;
1563;SDS011;775;51.958;7.976;2023-02-23T09:49:58;62.03;;;34.93;;
1563;SDS011;775;51.958;7.976;2023-02-23T09:52:26;67.50;;;36.87;;
1563;SDS011;775;51.958;7.976;2023-02-23T09:54:54;63.33;;;35.00;;
1563;SDS011;775;51.958;7.976;2023-02-23T09:57:22;70.27;;;36.50;;
1563;SDS011;775;51.958;7.976;2023-02-23T09:59:51;63.03;;;34.30;;
1563;SDS011;775;51.958;7.976;2023-02-23T10:02:22;67.60;;;35.20;;
1563;SDS011;775;51.958;7.976;2023-02-23T10:04:50;66.00;;;36.30;;
1563;SDS011;775;51.958;7.976;2023-02-23T10:07:19;61.67;;;37.67;;
1563;SDS011;775;51.958;7.976;2023-02-23T10:09:51;64.67;;;34.63;;
1563;SDS011;775;51.958;7.976;2023-02-23T10:12:22;69.33;;;33.60;;
1563;SDS011;775;51.958;7.976;2023-02-23T10:15:04;65.17;;;34.30;;
1563;SDS011;775;51.958;7.976;2023-02-23T10:17:38;56.17;;;32.73;;
1563;SDS011;775;51.958;7.976;2023-02-23T10:20:10;68.17;;;34.53;;
1563;SDS011;775;51.958;7.976;2023-02-23T10:22:39;65.40;;;34.43;;
1563;SDS011;775;51.958;7.976;2023-02-23T10:25:08;65.83;;;33.07;;
1563;SDS011;775;51.958;7.976;2023-02-23T10:27:39;71.67;;;37.47;;
1563;SDS011;775;51.958;7.976;2023-02-23T10:30:14;65.70;;;34.37;;
1563;SDS011;775;51.958;7.976;2023-02-23T10:32:45;73.00;;;38.00;;
1563;SDS011;775;51.958;7.976;2023-02-23T10:35:15;71.87;;;36.53;;
1563;SDS011;775;51.958;7.976;2023-02-23T10:37:43;75.00;;;38.87;;
1563;SDS011;775;51.958;7.976;2023-02-23T10:40:13;73.53;;;32.97;;
1563;SDS011;775;51.958;7.976;2023-02-23T10:42:39;65.40;;;34.80;;
1563;SDS011;775;51.958;7.976;2023-02-23T10:45:11;62.10;;;33.07;;
1563;SDS011;775;51.958;7.976;2023-02-23T10:47:45;63.00;;;33.13;;
1563;SDS011;775;51.958;7.976;2023-02-23T10:50:12;65.33;;;33.63;;
1563;SDS011;775;51.958;7.976;2023-02-23T10:52:40;61.10;;;31.17;;
1563;SDS011;775;51.958;7.976;2023-02-23T10:55:19;60.43;;;30.90;;
1563;SDS011;775;51.958;7.976;2023-02-23T10:57:47;63.27;;;30.37;;
1563;SDS011;775;51.958;7.976;2023-02-23T11:00:26;63.77;;;33.27;;
1563;SDS011;775;51.958;7.976;2023-02-23T11:02:58;60.47;;;30.90;;
1563;SDS011;775;51.958;7.976;2023-02-23T11:05:30;68.33;;;31.10;;
1563;SDS011;775;51.958;7.976;2023-02-23T11:08:08;64.97;;;33.53;;
1563;SDS011;775;51.958;7.976;2023-02-23T11:10:35;63.90;;;33.77;;
1563;SDS011;775;51.958;7.976;2023-02-23T11:13:02;68.37;;;32.23;;
1563;SDS011;775;51.958;7.976;2023-02-23T11:15:30;64.37;;;31.13;;
1563;SDS011;775;51.958;7.976;2023-02-23T11:18:00;61.13;;;29.70;;
1563;SDS011;775;51.958;7.976;2023-02-23T11:20:28;64.73;;;30.97;;
1563;SDS011;775;51.958;7.976;2023-02-23T11:22:57;68.27;;;29.90;;
1563;SDS011;775;51.958;7.976;2023-02-23T11:25:25;66.67;;;29.03;;
1563;SDS011;775;51.958;7.976;2023-02-23T11:27:53;65.80;;;33.53;;
1563;SDS011;775;51.958;7.976;2023-02-23T11:30:21;61.80;;;33.30;;
1563;SDS011;775;51.958;7.976;2023-02-23T11:32:49;66.10;;;31.50;;
1563;SDS011;775;51.958;7.976;2023-02-23T11:35:26;65.27;;;31.27;;
1563;SDS011;775;51.958;7.976;2023-02-23T11:37:53;64.57;;;32.20;;
1563;SDS011;775;51.958;7.976;2023-02-23T11:40:21;66.70;;;30.60;;
1563;SDS011;775;51.958;7.976;2023-02-23T11:42:49;69.33;;;31.40;;
1563;SDS011;775;51.958;7.976;2023-02-23T11:45:17;62.63;;;32.60;;
1563;SDS011;775;51.958;7.976;2023-02-23T11:47:46;62.30;;;31.07;;
1563;SDS011;775;51.958;7.976;2023-02-23T11:50:19;58.70;;;30.07;;
1563;SDS011;775;51.958;7.976;2023-02-23T11:52:47;63.00;;;30.00;;
1563;SDS011;775;51.958;7.976;2023-02-23T11:55:16;56.73;;;28.50;;
1563;SDS011;775;51.958;7.976;2023-02-23T11:57:44;60.77;;;28.50;;
1563;SDS011;775;51.958;7.976;2023-02-23T12:00:19;53.07;;;25.20;;
1563;SDS011;775;51.958;7.976;2023-02-23T12:02:48;53.80;;;25.33;;
1563;SDS011;775;51.958;7.976;2023-02-23T12:05:18;45.47;;;23.67;;
1563;SDS011;775;51.958;7.976;2023-02-23T12:07:49;53.27;;;23.67;;
1563;SDS011;775;51.958;7.976;2023-02-23T12:10:20;45.93;;;21.97;;
1563;SDS011;775;51.958;7.976;2023-02-23T12:12:50;51.93;;;22.60;;
1563;SDS011;775;51.958;7.976;2023-02-23T12:15:21;45.73;;;22.57;;
1563;SDS011;775;51.958;7.976;2023-02-23T12:17:50;42.40;;;22.03;;
1563;SDS011;775;51.958;7.976;2023-02-23T12:20:19;42.57;;;20.00;;
1563;SDS011;775;51.958;7.976;2023-02-23T12:22:50;39.53;;;18.90;;
1563;SDS011;775;51.958;7.976;2023-02-23T12:25:19;39.80;;;17.67;;
1563;SDS011;775;51.958;7.976;2023-02-23T12:27:50;43.87;;;19.63;;
1563;SDS011;775;51.958;7.976;2023-02-23T12:30:20;40.33;;;19.10;;
1563;SDS011;775;51.958;7.976;2023-02-23T12:32:50;37.17;;;15.50;;
1563;SDS011;775;51.958;7.976;2023-02-23T12:35:19;39.27;;;16.50;;
1563;SDS011;775;51.958;7.976;2023-02-23T12:37:48;38.70;;;15.80;;
1563;SDS011;775;51.958;7.976;2023-02-23T12:40:20;39.77;;;16.60;;
1563;SDS011;775;51.958;7.976;2023-02-23T12:42:51;35.70;;;16.43;;
1563;SDS011;775;51.958;7.976;2023-02-23T12:45:21;35.50;;;15.90;;
1563;SDS011;775;51.958;7.976;2023-02-23T12:47:51;39.10;;;14.67;;
1563;SDS011;775;51.958;7.976;2023-02-23T12:50:22;34.47;;;14.47;;
1563;SDS011;775;51.958;7.976;2023-02-23T12:52:52;34.20;;;14.57;;
1563;SDS011;775;51.958;7.976;2023-02-23T12:55:25;31.33;;;14.93;;
1563;SDS011;775;51.958;7.976;2023-02-23T12:57:56;31.20;;;14.70;;
1563;SDS011;775;51.958;7.976;2023-02-23T13:00:39;36.67;;;16.87;;
1563;SDS011;775;51.958;7.976;2023-02-23T13:03:16;35.00;;;15.27;;
1563;SDS011;775;51.958;7.976;2023-02-23T13:05:49;32.23;;;14.77;;
1563;SDS011;775;51.958;7.976;2023-02-23T13:08:18;36.73;;;14.60;;
1563;SDS011;775;51.958;7.976;2023-02-23T13:10:54;31.80;;;14.10;;
1563;SDS011;775;51.958;7.976;2023-02-23T13:13:24;28.37;;;13.00;;
1563;SDS011;775;51.958;7.976;2023-02-23T13:15:59;31.77;;;13.13;;
1563;SDS011;775;51.958;7.976;2023-02-23T13:18:27;32.80;;;14.37;;
1563;SDS011;775;51.958;7.976;2023-02-23T13:21:00;36.43;;;14.47;;
1563;SDS011;775;51.958;7.976;2023-02-23T13:23:32;31.73;;;14.20;;
1563;SDS011;775;51.958;7.976;2023-02-23T13:26:04;28.23;;;13.40;;
1563;SDS011;775;51.958;7.976;2023-02-23T13:28:40;29.27;;;13.37;;
1563;SDS011;775;51.958;7.976;2023-02-23T13:31:12;29.00;;;12.70;;
1563;SDS011;775;51.958;7.976;2023-02-23T13:33:43;30.20;;;15.10;;
1563;SDS011;775;51.958;7.976;2023-02-23T13:36:10;25.87;;;10.90;;
1563;SDS011;775;51.958;7.976;2023-02-23T13:38:39;35.37;;;12.13;;
1563;SDS011;775;51.958;7.976;2023-02-23T13:41:11;29.50;;;12.70;;
1563;SDS011;775;51.958;7.976;2023-02-23T13:43:42;25.77;;;11.20;;
1563;SDS011;775;51.958;7.976;2023-02-23T13:46:22;29.83;;;13.33;;
1563;SDS011;775;51.958;7.976;2023-02-23T13:48:54;29.93;;;11.37;;
1563;SDS011;775;51.958;7.976;2023-02-23T13:51:23;28.97;;;11.20;;
1563;SDS011;775;51.958;7.976;2023-02-23T13:53:59;24.47;;;10.07;;
1563;SDS011;775;51.958;7.976;2023-02-23T13:56:28;27.23;;;11.37;;
1563;SDS011;775;51.958;7.976;2023-02-23T13:58:57;30.87;;;11.77;;
1563;SDS011;775;51.958;7.976;2023-02-23T14:01:25;25.50;;;10.27;;
1563;SDS011;775;51.958;7.976;2023-02-23T14:03:53;28.57;;;11.17;;
1563;SDS011;775;51.958;7.976;2023-02-23T14:06:21;29.10;;;11.13;;
1563;SDS011;775;51.958;7.976;2023-02-23T14:08:50;26.20;;;11.30;;
1563;SDS011;775;51.958;7.976;2023-02-23T14:11:36;26.47;;;10.03;;
1563;SDS011;775;51.958;7.976;2023-02-23T14:14:04;23.50;;;9.40;;
1563;SDS011;775;51.958;7.976;2023-02-23T14:16:31;22.43;;;9.03;;
1563;SDS011;775;51.958;7.976;2023-02-23T14:19:06;24.90;;;9.90;;
1563;SDS011;775;51.958;7.976;2023-02-23T14:21:36;24.60;;;9.07;;
1563;SDS011;775;51.958;7.976;2023-02-23T14:24:18;26.67;;;10.03;;
1563;SDS011;775;51.958;7.976;2023-02-23T14:32:30;26.20;;;9.60;;
1563;SDS011;775;51.958;7.976;2023-02-23T14:35:03;26.67;;;11.07;;
1563;SDS011;775;51.958;7.976;2023-02-23T14:37:30;25.37;;;10.50;;
1563;SDS011;775;51.958;7.976;2023-02-23T14:40:00;25.57;;;10.17;;
1563;SDS011;775;51.958;7.976;2023-02-23T14:42:29;28.20;;;11.00;;
1563;SDS011;775;51.958;7.976;2023-02-23T14:44:57;25.70;;;10.80;;
1563;SDS011;775;51.958;7.976;2023-02-23T14:47:28;27.20;;;10.80;;
1563;SDS011;775;51.958;7.976;2023-02-23T14:49:57;29.00;;;10.60;;
1563;SDS011;775;51.958;7.976;2023-02-23T14:52:25;27.23;;;10.50;;
1563;SDS011;775;51.958;7.976;2023-02-23T14:55:03;29.23;;;11.73;;
1563;SDS011;775;51.958;7.976;2023-02-23T14:57:34;29.93;;;12.43;;
1563;SDS011;775;51.958;7.976;2023-02-23T15:00:05;30.30;;;12.53;;
1563;SDS011;775;51.958;7.976;2023-02-23T15:02:32;28.23;;;11.73;;
1563;SDS011;775;51.958;7.976;2023-02-23T15:05:13;28.40;;;11.63;;
1563;SDS011;775;51.958;7.976;2023-02-23T15:07:41;33.67;;;14.27;;
1563;SDS011;775;51.958;7.976;2023-02-23T15:10:11;30.97;;;12.93;;
1563;SDS011;775;51.958;7.976;2023-02-23T15:12:42;31.90;;;12.20;;
1563;SDS011;775;51.958;7.976;2023-02-23T15:15:11;32.30;;;14.13;;
1563;SDS011;775;51.958;7.976;2023-02-23T15:17:43;31.00;;;12.90;;
1563;SDS011;775;51.958;7.976;2023-02-23T15:20:11;28.57;;;12.30;;
1563;SDS011;775;51.958;7.976;2023-02-23T15:22:41;29.57;;;12.30;;
1563;SDS011;775;51.958;7.976;2023-02-23T15:25:12;30.97;;;13.77;;
1563;SDS011;775;51.958;7.976;2023-02-23T15:27:40;31.43;;;13.07;;
1563;SDS011;775;51.958;7.976;2023-02-23T15:30:19;31.10;;;12.80;;
1563;SDS011;775;51.958;7.976;2023-02-23T15:32:46;33.93;;;13.97;;
1563;SDS011;775;51.958;7.976;2023-02-23T15:35:14;34.50;;;13.30;;
1563;SDS011;775;51.958;7.976;2023-02-23T15:37:43;28.10;;;11.53;;
1563;SDS011;775;51.958;7.976;2023-02-23T15:40:12;33.70;;;13.77;;
1563;SDS011;775;51.958;7.976;2023-02-23T15:42:41;32.30;;;15.40;;